Fresno, Texas
Current Conditions -  °F | °C
As of 10:15 AM on Wednesday 26 Nov 2014 (Local Time) from KAXH Reporting Station
Clear Clear  
Wind Chill: 62°   Ceiling: Unl
Heat Index: 62°   Visibility: 10mi
Dew Point: 40°   Wind: 7mph
Humidity: 46%   Direction: 240°WSW
Pressure: 30.27"   Gusts: NA
Location:  29.54°N, 95.45°W
Report Text: KAXH 261615Z AUTO 24006KT 10SM CLR 16/05 A3027 RMK AO2 T01640047
Loading
Personal Weather Stations






























Interactive Weather Map New forecast layout! Learn more

10-Day Weather Forecast

Advertisements
Track Severe Weather on mobile